Time;durP1;ratioP1;P1;durP2;ratioP2;P2;SDS_P1;SDS_P2;PMS_P1;PMS_P2;Temp;Humidity;BMP_temperature;BMP_pressure;BME280_temperature;BME280_humidity;BME280_pressure;Samples;Min_cycle;Max_cycle;Signal;HPM_P1;HPM_P2
2024/01/06 00:00:21;;;;;;;2.28;1.40;;;6.90;99.90;;;6.82;84.92;99409.34;4816560;28;24807;-65
2024/01/06 00:02:43;;;;;;;1.92;1.70;;;6.80;99.90;;;6.77;84.84;99414.88;4828778;28;24507;-65
2024/01/06 00:05:05;;;;;;;2.08;1.67;;;6.80;99.90;;;6.72;85.48;99408.41;4818700;28;24999;-65
2024/01/06 00:07:27;;;;;;;3.00;1.70;;;6.80;99.90;;;6.67;84.81;99421.72;4802525;28;25024;-64
2024/01/06 00:09:50;;;;;;;1.70;1.60;;;6.70;99.90;;;6.61;85.28;99421.34;4831170;28;24502;-65
2024/01/06 00:12:12;;;;;;;2.33;2.00;;;6.60;99.90;;;6.55;86.27;99425.22;4828731;28;25038;-65
2024/01/06 00:14:34;;;;;;;2.00;1.80;;;6.60;99.90;;;6.49;85.68;99430.03;4829632;28;25064;-66
2024/01/06 00:16:56;;;;;;;3.10;1.90;;;6.50;99.90;;;6.48;86.58;99420.59;4828483;28;25069;-66
2024/01/06 00:19:18;;;;;;;2.13;1.60;;;6.50;99.90;;;6.45;86.08;99433.78;4833352;28;24540;-66
2024/01/06 00:21:40;;;;;;;2.10;1.90;;;6.50;99.90;;;6.42;87.23;99432.25;4835966;28;24502;-66
2024/01/06 00:24:02;;;;;;;2.67;2.20;;;6.50;99.90;;;6.34;86.52;99437.16;4817556;28;24452;-66
2024/01/06 00:26:27;;;;;;;2.85;2.05;;;6.40;99.90;;;6.32;87.35;99440.81;4819033;28;25276;-66
2024/01/06 00:28:49;;;;;;;2.72;2.00;;;6.30;99.90;;;6.32;87.61;99428.69;4810114;28;24538;-65
2024/01/06 00:31:11;;;;;;;4.55;2.50;;;6.30;99.90;;;6.34;87.40;99429.41;4835167;28;24982;-65
2024/01/06 00:33:33;;;;;;;2.80;2.40;;;6.40;99.90;;;6.29;88.07;99434.09;4824132;28;21166;-66
2024/01/06 00:35:55;;;;;;;2.60;2.40;;;6.30;99.90;;;6.20;87.82;99435.59;4827738;28;24859;-66
2024/01/06 00:38:18;;;;;;;3.45;2.20;;;6.30;99.90;;;6.19;87.14;99430.53;4796368;28;20886;-66
2024/01/06 00:40:39;;;;;;;3.45;2.67;;;6.20;99.90;;;6.15;88.63;99435.06;4835680;28;24438;-66
2024/01/06 00:43:01;;;;;;;3.33;2.47;;;6.20;99.90;;;6.12;87.91;99434.47;4817703;28;20861;-66
2024/01/06 00:45:23;;;;;;;3.60;2.20;;;6.20;99.90;;;6.11;89.25;99433.66;4802024;28;24460;-65
2024/01/06 00:47:45;;;;;;;3.92;2.40;;;6.10;99.90;;;6.13;88.23;99439.53;4815994;28;24547;-65
2024/01/06 00:50:08;;;;;;;2.90;2.60;;;6.10;99.90;;;6.05;88.69;99434.09;4815216;28;24487;-65
2024/01/06 00:52:30;;;;;;;2.72;2.53;;;6.10;99.90;;;6.07;88.85;99447.75;4824242;28;20864;-65
2024/01/06 00:54:52;;;;;;;3.40;2.40;;;6.10;99.90;;;6.05;89.02;99436.69;4799318;28;24437;-65
2024/01/06 00:57:14;;;;;;;4.55;2.50;;;6.10;99.90;;;6.02;88.58;99439.50;4801980;28;24500;-66
2024/01/06 00:59:36;;;;;;;3.00;2.50;;;6.10;99.90;;;6.04;89.29;99448.00;4806603;28;24449;-65
2024/01/06 01:01:58;;;;;;;2.40;2.20;;;6.10;99.90;;;6.03;88.42;99438.56;4835823;28;24431;-66
2024/01/06 01:04:20;;;;;;;2.80;2.30;;;6.10;99.90;;;6.08;88.72;99446.00;4808383;28;24646;-66
2024/01/06 01:06:42;;;;;;;2.60;2.40;;;6.10;99.90;;;6.11;89.17;99449.19;4801611;28;24510;-65
2024/01/06 01:09:04;;;;;;;4.45;2.20;;;6.10;99.90;;;6.14;89.41;99453.31;4817981;28;24435;-64
2024/01/06 01:11:26;;;;;;;3.60;2.47;;;6.10;99.90;;;6.18;88.64;99455.59;4820283;28;24564;-65
2024/01/06 01:13:48;;;;;;;3.92;2.30;;;6.20;99.90;;;6.24;88.98;99460.31;4817903;28;24433;-65
2024/01/06 01:16:10;;;;;;;13.52;5.18;;;6.20;99.90;;;6.33;88.03;99458.81;4833633;28;24443;-65
2024/01/06 01:18:32;;;;;;;2.72;1.77;;;6.30;99.90;;;6.42;88.52;99470.28;4828149;28;24511;-65
2024/01/06 01:20:54;;;;;;;1.92;1.70;;;6.40;99.90;;;6.48;87.76;99473.25;4788048;28;24481;-66
2024/01/06 01:23:16;;;;;;;2.22;1.80;;;6.50;99.90;;;6.56;87.28;99468.31;4805579;28;20790;-67
2024/01/06 01:25:38;;;;;;;2.60;1.90;;;6.60;99.90;;;6.61;86.96;99473.16;4837347;28;24491;-66
2024/01/06 01:28:00;;;;;;;3.20;1.90;;;6.60;99.90;;;6.64;85.81;99467.78;4819029;28;24456;-66
2024/01/06 01:30:22;;;;;;;2.50;1.85;;;6.60;99.90;;;6.69;86.50;99473.41;4821728;28;25109;-67
2024/01/06 01:32:44;;;;;;;2.30;1.88;;;6.70;99.90;;;6.73;85.45;99478.28;4814986;28;24992;-66
2024/01/06 01:35:07;;;;;;;2.83;1.90;;;6.70;99.90;;;6.75;85.78;99483.38;4821393;28;24490;-64
2024/01/06 01:37:29;;;;;;;3.33;1.73;;;6.70;99.90;;;6.79;85.44;99471.81;4832686;28;24440;-66
2024/01/06 01:39:51;;;;;;;2.00;1.63;;;6.70;99.90;;;6.80;85.08;99471.69;4804009;28;24460;-67
2024/01/06 01:42:13;;;;;;;2.53;1.60;;;6.80;99.90;;;6.78;84.55;99471.00;4839359;28;24432;-66
2024/01/06 01:44:35;;;;;;;2.70;1.70;;;6.80;99.90;;;6.76;85.82;99479.81;4821259;28;24512;-65
2024/01/06 01:46:57;;;;;;;2.85;1.80;;;6.70;99.90;;;6.75;85.87;99480.78;4827911;28;24479;-66
2024/01/06 01:49:19;;;;;;;2.35;1.70;;;6.70;99.90;;;6.75;84.81;99483.38;4811717;28;25237;-65
2024/01/06 01:51:44;;;;;;;1.60;1.50;;;6.70;99.90;;;6.76;85.08;99490.19;4798353;28;24971;-65
2024/01/06 01:54:07;;;;;;;2.95;1.70;;;6.70;99.90;;;6.73;85.12;99488.63;4806008;28;24455;-65
2024/01/06 01:56:34;;;;;;;2.45;1.80;;;6.70;99.90;;;6.72;85.03;99491.34;4820713;28;24471;-65
2024/01/06 01:58:56;;;;;;;1.73;1.63;;;6.70;99.90;;;6.72;85.52;99483.56;4796032;28;24807;-64
2024/01/06 02:01:18;;;;;;;2.15;1.50;;;6.70;99.90;;;6.72;86.24;99491.34;4799877;28;25057;-64
2024/01/06 02:03:44;;;;;;;3.90;1.60;;;6.70;99.90;;;6.68;85.20;99485.56;4826955;28;24457;-64
2024/01/06 02:06:06;;;;;;;1.70;1.50;;;6.70;99.90;;;6.66;85.32;99484.88;4828090;28;24839;-64
2024/01/06 02:08:28;;;;;;;4.60;1.80;;;6.70;99.90;;;6.62;85.56;99483.41;4830286;28;24548;-65
2024/01/06 02:10:50;;;;;;;2.37;1.60;;;6.70;99.90;;;6.58;85.53;99484.59;4830941;28;24580;-65
2024/01/06 02:13:13;;;;;;;2.90;1.60;;;6.60;99.90;;;6.60;85.67;99489.69;4832728;28;24440;-64
2024/01/06 02:15:35;;;;;;;1.60;1.50;;;6.60;99.90;;;6.63;86.49;99486.84;4814973;28;24453;-66
2024/01/06 02:17:57;;;;;;;1.60;1.50;;;6.60;99.90;;;6.63;86.24;99494.63;4833070;28;24459;-64
2024/01/06 02:20:19;;;;;;;1.80;1.60;;;6.60;99.90;;;6.61;86.38;99488.72;4837494;28;24443;-65
2024/01/06 02:22:42;;;;;;;1.85;1.40;;;6.60;99.90;;;6.58;86.33;99492.34;4829399;28;24452;-65
2024/01/06 02:25:12;;;;;;;2.33;1.60;;;6.60;99.90;;;6.58;85.55;99496.75;4834764;28;24460;-65
2024/01/06 02:27:34;;;;;;;1.83;1.50;;;6.60;99.90;;;6.57;87.05;99492.47;4837604;28;24433;-64
2024/01/06 02:29:56;;;;;;;2.78;1.80;;;6.60;99.90;;;6.55;86.78;99487.41;4839333;28;24494;-65
2024/01/06 02:32:18;;;;;;;2.90;1.55;;;6.60;99.90;;;6.62;86.42;99491.19;4829934;28;24452;-65
2024/01/06 02:34:40;;;;;;;2.13;1.80;;;6.60;99.90;;;6.63;86.52;99489.44;4820247;28;24483;-65
2024/01/06 02:37:02;;;;;;;2.42;1.92;;;6.60;99.90;;;6.62;86.65;99492.97;4828306;28;24448;-64
2024/01/06 02:39:24;;;;;;;2.33;1.77;;;6.60;99.90;;;6.68;86.96;99502.88;4813096;28;24491;-64
2024/01/06 02:41:46;;;;;;;1.75;1.60;;;6.60;99.90;;;6.75;86.72;99507.50;4837322;28;24483;-64
2024/01/06 02:44:08;;;;;;;1.77;1.50;;;6.70;99.90;;;6.80;85.90;99504.56;4834592;28;24505;-64
2024/01/06 02:46:34;;;;;;;2.05;1.63;;;6.70;99.90;;;6.83;85.68;99505.19;4835214;28;24447;-64
2024/01/06 02:48:56;;;;;;;1.70;1.60;;;6.80;99.90;;;6.90;85.46;99505.53;4811546;28;24621;-64
2024/01/06 02:51:18;;;;;;;2.13;1.50;;;6.80;99.90;;;6.95;85.14;99511.22;4820993;28;24440;-63
2024/01/06 02:53:40;;;;;;;1.60;1.50;;;6.90;99.90;;;7.00;84.91;99507.34;4837596;28;24931;-64
2024/01/06 02:56:02;;;;;;;4.70;1.70;;;6.90;99.90;;;7.04;84.92;99510.53;4821205;28;24535;-64
2024/01/06 02:58:24;;;;;;;4.00;1.60;;;6.90;99.90;;;7.09;84.62;99502.41;4817787;28;24512;-64
2024/01/06 03:00:46;;;;;;;2.30;1.53;;;7.00;99.90;;;7.13;84.00;99502.06;4836081;28;24528;-64
2024/01/06 03:03:08;;;;;;;2.20;1.20;;;7.00;99.90;;;7.19;83.62;99508.53;4816423;28;24446;-62
2024/01/06 03:05:31;;;;;;;1.40;1.30;;;7.10;99.90;;;7.19;83.15;99506.78;4826044;28;24467;-65
2024/01/06 03:07:53;;;;;;;1.40;1.30;;;7.10;99.90;;;7.16;83.26;99506.16;4826763;28;24428;-64
2024/01/06 03:10:15;;;;;;;1.65;1.50;;;7.10;99.90;;;7.10;83.16;99502.28;4819619;28;24441;-64
2024/01/06 03:12:36;;;;;;;4.13;1.40;;;7.10;99.90;;;7.10;83.42;99506.63;4807686;28;24446;-63
2024/01/06 03:14:59;;;;;;;4.32;1.40;;;7.10;99.90;;;6.95;83.37;99504.25;4829013;28;24474;-64
2024/01/06 03:17:21;;;;;;;2.20;1.40;;;7.00;99.90;;;6.83;84.25;99512.97;4819456;28;24524;-65
2024/01/06 03:19:44;;;;;;;2.10;1.30;;;6.90;99.90;;;6.74;84.09;99517.97;4818854;28;24444;-64
2024/01/06 03:22:06;;;;;;;1.40;1.30;;;6.80;99.90;;;6.70;85.05;99521.75;4803475;28;24439;-64
2024/01/06 03:24:28;;;;;;;2.00;1.40;;;6.80;99.90;;;6.69;84.30;99512.31;4817724;28;25019;-64
2024/01/06 03:26:51;;;;;;;1.20;1.10;;;6.70;99.90;;;6.70;85.17;99514.81;4831620;28;25041;-65
2024/01/06 03:29:12;;;;;;;1.70;1.50;;;6.70;99.90;;;6.75;85.33;99519.66;4812616;28;24420;-64
2024/01/06 03:31:34;;;;;;;1.80;1.70;;;6.70;99.90;;;6.75;85.25;99528.22;4819491;28;24981;-64
2024/01/06 03:33:58;;;;;;;2.80;2.30;;;6.80;99.90;;;6.69;85.39;99523.50;4818809;28;25038;-64
2024/01/06 03:36:20;;;;;;;2.10;2.00;;;6.70;99.90;;;6.60;86.04;99524.16;4815808;28;24522;-65
2024/01/06 03:38:42;;;;;;;2.17;1.98;;;6.60;99.90;;;6.56;85.88;99527.94;4819103;28;24457;-66
2024/01/06 03:41:04;;;;;;;3.55;1.70;;;6.60;99.90;;;6.57;86.04;99528.75;4836960;28;24838;-65
2024/01/06 03:43:26;;;;;;;2.30;1.80;;;6.60;99.90;;;6.59;86.24;99538.09;4802908;28;24527;-65
2024/01/06 03:45:48;;;;;;;2.50;1.70;;;6.60;99.90;;;6.60;86.35;99528.56;4834426;28;24428;-66
2024/01/06 03:48:10;;;;;;;2.20;1.50;;;6.60;99.90;;;6.63;86.12;99531.72;4818868;28;24435;-65
2024/01/06 03:50:32;;;;;;;2.90;1.40;;;6.60;99.90;;;6.68;85.89;99531.41;4826691;28;24522;-66
2024/01/06 03:52:54;;;;;;;1.70;1.60;;;6.60;99.90;;;6.71;85.83;99531.16;4801559;28;24636;-65
2024/01/06 03:55:16;;;;;;;2.38;1.60;;;6.70;99.90;;;6.76;85.15;99526.47;4802587;28;24458;-65
2024/01/06 03:57:38;;;;;;;1.80;1.70;;;6.70;99.90;;;6.80;84.93;99538.25;4815703;28;24803;-64
2024/01/06 04:00:00;;;;;;;1.70;1.60;;;6.70;99.90;;;6.79;84.18;99534.84;4830882;28;24464;-63
2024/01/06 04:02:22;;;;;;;3.85;1.70;;;6.80;99.90;;;6.63;85.04;99531.72;4824734;28;25055;-65
2024/01/06 04:04:44;;;;;;;2.80;1.60;;;6.70;99.90;;;6.55;85.67;99531.47;4827733;28;24536;-65
2024/01/06 04:07:06;;;;;;;1.88;1.70;;;6.70;99.90;;;6.58;85.76;99541.59;4817948;28;24582;-65
2024/01/06 04:09:28;;;;;;;1.77;1.52;;;6.60;99.90;;;6.52;85.50;99536.88;4830595;28;24585;-65
2024/01/06 04:11:50;;;;;;;1.75;1.65;;;6.50;99.90;;;6.58;85.28;99527.84;4828707;28;25286;-65
2024/01/06 04:14:12;;;;;;;2.10;1.80;;;6.60;99.90;;;6.60;86.02;99538.91;4833393;28;24454;-65
2024/01/06 04:16:34;;;;;;;1.42;1.33;;;6.60;99.90;;;6.57;86.13;99533.94;4812013;28;24823;-65
2024/01/06 04:18:56;;;;;;;2.85;1.70;;;6.60;99.90;;;6.53;85.37;99538.53;4809183;28;24502;-62
2024/01/06 04:21:18;;;;;;;1.80;1.70;;;6.60;99.90;;;6.53;85.22;99535.09;4808952;28;24531;-64
2024/01/06 04:23:40;;;;;;;4.10;2.00;;;6.50;99.90;;;6.53;85.56;99529.94;4835560;28;24696;-65
2024/01/06 04:26:04;;;;;;;3.08;1.73;;;6.50;99.90;;;6.59;85.85;99532.06;4806394;28;24440;-64
2024/01/06 04:28:26;;;;;;;2.78;1.60;;;6.60;99.90;;;6.66;86.60;99528.09;4813179;28;24441;-65
2024/01/06 04:30:48;;;;;;;3.40;1.77;;;6.60;99.90;;;6.73;85.04;99529.31;4816377;28;24429;-64
2024/01/06 04:33:10;;;;;;;2.50;1.60;;;6.70;99.90;;;6.78;85.43;99530.59;4835094;28;24431;-64
2024/01/06 04:35:32;;;;;;;3.30;1.65;;;6.70;99.90;;;6.82;85.19;99533.78;4830501;28;24460;-64
2024/01/06 04:37:54;;;;;;;2.00;1.70;;;6.80;99.90;;;6.86;84.84;99530.88;4835793;28;24931;-65
2024/01/06 04:40:16;;;;;;;1.70;1.60;;;6.80;99.90;;;6.95;84.42;99534.53;4816798;28;24463;-64
2024/01/06 04:42:38;;;;;;;1.70;1.60;;;6.80;99.90;;;6.98;83.68;99524.75;4807846;28;24494;-64
2024/01/06 04:45:00;;;;;;;1.50;1.40;;;6.90;99.90;;;6.99;83.48;99523.00;4817686;28;24789;-64
2024/01/06 04:47:22;;;;;;;1.40;1.30;;;7.00;99.90;;;6.98;83.86;99519.56;4818567;28;24416;-64
2024/01/06 04:49:45;;;;;;;1.52;1.40;;;7.00;99.90;;;6.98;84.45;99529.16;4817305;28;24428;-65
2024/01/06 04:52:07;;;;;;;3.40;1.50;;;7.00;99.90;;;6.98;84.39;99529.16;4818260;28;24463;-64
2024/01/06 04:54:29;;;;;;;1.67;1.45;;;7.00;99.90;;;6.97;83.75;99524.88;4817503;28;24505;-64
2024/01/06 04:56:51;;;;;;;3.00;1.40;;;6.90;99.90;;;7.00;83.77;99535.88;4814149;28;24457;-64
2024/01/06 04:59:13;;;;;;;1.70;1.60;;;7.00;99.90;;;7.01;84.16;99531.50;4830053;28;24444;-65
2024/01/06 05:01:35;;;;;;;2.80;1.80;;;7.00;99.90;;;7.00;84.08;99537.63;4834390;28;24479;-66
2024/01/06 05:03:57;;;;;;;1.73;1.60;;;7.00;99.90;;;7.03;84.72;99535.63;4826387;28;24456;-64
2024/01/06 05:06:19;;;;;;;1.60;1.50;;;7.00;99.90;;;7.05;83.83;99535.50;4835571;28;24429;-65
2024/01/06 05:08:44;;;;;;;1.80;1.60;;;7.00;99.90;;;7.07;84.79;99533.63;4822757;28;25018;-65
2024/01/06 05:11:06;;;;;;;1.80;1.40;;;7.00;99.90;;;7.07;84.25;99534.47;4811867;28;24588;-64
2024/01/06 05:13:28;;;;;;;2.30;1.50;;;7.00;99.90;;;7.05;84.65;99535.50;4835386;28;24994;-64
2024/01/06 05:15:50;;;;;;;1.50;1.40;;;7.00;99.90;;;7.05;84.54;99545.88;4827471;28;24531;-64
2024/01/06 05:18:12;;;;;;;1.63;1.52;;;7.00;99.90;;;7.00;85.20;99541.06;4831534;28;24436;-64
2024/01/06 05:20:34;;;;;;;1.58;1.48;;;7.00;99.90;;;6.91;85.02;99536.56;4787757;28;25100;-64
2024/01/06 05:22:56;;;;;;;2.10;1.52;;;6.90;99.90;;;6.93;85.38;99541.63;4817105;28;24495;-65
2024/01/06 05:25:19;;;;;;;1.63;1.53;;;6.90;99.90;;;6.85;85.34;99546.53;4830156;28;24552;-65
2024/01/06 05:27:41;;;;;;;1.88;1.60;;;6.90;99.90;;;6.80;86.31;99541.69;4832010;28;24817;-64
2024/01/06 05:30:03;;;;;;;2.30;1.60;;;6.80;99.90;;;6.69;86.07;99544.25;4817314;28;24532;-64
2024/01/06 05:32:25;;;;;;;2.05;1.85;;;6.70;99.90;;;6.73;86.18;99545.66;4827104;28;24444;-64
2024/01/06 05:34:49;;;;;;;1.80;1.70;;;6.70;99.90;;;6.74;86.46;99549.09;4801042;28;24532;-65
2024/01/06 05:37:11;;;;;;;1.90;1.70;;;6.70;99.90;;;6.69;87.20;99546.84;4817144;28;25098;-65
2024/01/06 05:39:33;;;;;;;2.90;1.60;;;6.70;99.90;;;6.69;87.27;99546.00;4817349;28;24894;-64
2024/01/06 05:41:55;;;;;;;1.70;1.60;;;6.70;99.90;;;6.73;87.17;99550.84;4801184;28;24433;-64
2024/01/06 05:44:17;;;;;;;1.58;1.40;;;6.70;99.90;;;6.74;87.25;99559.47;4806125;28;24483;-65
2024/01/06 05:46:39;;;;;;;2.38;1.80;;;6.70;99.90;;;6.78;87.40;99553.09;4825235;28;24531;-65
2024/01/06 05:49:01;;;;;;;1.60;1.50;;;6.70;99.90;;;6.74;86.70;99555.09;4834303;28;24432;-64
2024/01/06 05:51:23;;;;;;;3.47;1.85;;;6.80;99.90;;;6.76;86.65;99555.00;4809400;28;24986;-65
2024/01/06 05:53:45;;;;;;;1.83;1.70;;;6.80;99.90;;;6.73;87.33;99561.22;4833018;28;24452;-64
2024/01/06 05:56:08;;;;;;;2.10;1.55;;;6.70;99.90;;;6.74;87.39;99564.66;4834226;28;25081;-64
2024/01/06 05:58:30;;;;;;;2.40;1.77;;;6.70;99.90;;;6.81;87.21;99573.63;4819578;28;24540;-65
2024/01/06 06:00:52;;;;;;;2.25;1.80;;;6.80;99.90;;;6.82;87.11;99568.34;4828823;28;24459;-66
2024/01/06 06:03:14;;;;;;;2.40;1.80;;;6.80;99.90;;;6.86;86.58;99567.16;4819600;28;24459;-65
2024/01/06 06:05:36;;;;;;;2.10;1.90;;;6.80;99.90;;;6.90;87.62;99570.34;4819710;28;24457;-65
2024/01/06 06:07:58;;;;;;;1.70;1.60;;;6.90;99.90;;;6.86;86.74;99577.53;4821569;28;24639;-65
2024/01/06 06:10:20;;;;;;;2.20;2.00;;;6.90;99.90;;;6.86;86.95;99579.28;4805373;28;24505;-64
2024/01/06 06:12:43;;;;;;;1.98;1.70;;;6.80;99.90;;;6.88;87.44;99580.00;4837594;28;24495;-65
2024/01/06 06:15:06;;;;;;;1.80;1.70;;;6.80;99.90;;;6.92;87.72;99581.47;4837958;28;24524;-64
2024/01/06 06:17:28;;;;;;;2.90;1.70;;;6.90;99.90;;;6.99;87.29;99588.66;4834243;28;24449;-64
2024/01/06 06:19:50;;;;;;;1.70;1.60;;;6.90;99.90;;;7.02;87.54;99587.63;4833813;28;25002;-65
2024/01/06 06:22:12;;;;;;;2.47;1.58;;;6.90;99.90;;;7.00;87.61;99590.34;4837996;28;24432;-65
2024/01/06 06:24:34;;;;;;;1.85;1.75;;;7.00;99.90;;;6.99;87.76;99593.84;4834482;28;25069;-64
2024/01/06 06:26:56;;;;;;;1.80;1.70;;;7.00;99.90;;;6.97;87.30;99594.91;4817626;28;24995;-64
2024/01/06 06:29:18;;;;;;;1.67;1.58;;;7.00;99.90;;;6.86;88.03;99600.88;4832100;28;24428;-64
2024/01/06 06:31:39;;;;;;;2.92;1.92;;;6.90;99.90;;;6.84;87.99;99607.09;4837222;28;24838;-64
2024/01/06 06:34:02;;;;;;;1.90;1.80;;;6.90;99.90;;;6.76;89.09;99604.25;4828178;28;24518;-64
2024/01/06 06:36:29;;;;;;;1.70;1.50;;;6.80;99.90;;;6.79;88.92;99610.03;4821452;28;24433;-64
2024/01/06 06:38:51;;;;;;;2.00;1.90;;;6.80;99.90;;;6.79;88.95;99612.63;4810448;28;24916;-64
2024/01/06 06:41:13;;;;;;;2.58;1.95;;;6.80;99.90;;;6.77;90.26;99613.69;4809835;28;25014;-65
2024/01/06 06:43:35;;;;;;;2.40;2.10;;;6.80;99.90;;;6.75;90.79;99623.34;4828936;28;24998;-66
2024/01/06 06:45:57;;;;;;;2.85;2.03;;;6.70;99.90;;;6.73;90.94;99623.44;4819724;28;24926;-66
2024/01/06 06:48:19;;;;;;;2.30;2.10;;;6.70;99.90;;;6.67;90.42;99623.03;4812555;28;24451;-65
2024/01/06 06:50:41;;;;;;;2.75;2.28;;;6.70;99.90;;;6.72;90.51;99626.16;4831380;28;24441;-65
2024/01/06 06:53:03;;;;;;;3.30;2.05;;;6.70;99.90;;;6.75;90.21;99626.75;4838267;28;24503;-65
2024/01/06 06:55:25;;;;;;;2.03;1.90;;;6.70;99.90;;;6.73;90.92;99630.41;4816766;28;24484;-64
2024/01/06 06:57:47;;;;;;;2.42;2.22;;;6.70;99.90;;;6.73;90.85;99633.81;4831703;28;24544;-65
2024/01/06 07:00:09;;;;;;;2.50;2.30;;;6.70;99.90;;;6.69;91.52;99639.31;4819835;28;24432;-65
2024/01/06 07:02:31;;;;;;;3.20;2.50;;;6.70;99.90;;;6.67;90.85;99638.59;4834042;28;24433;-66
2024/01/06 07:04:53;;;;;;;2.28;2.10;;;6.70;99.90;;;6.66;91.63;99639.56;4829583;28;25083;-65
2024/01/06 07:07:15;;;;;;;3.50;1.95;;;6.70;99.90;;;6.65;91.14;99650.84;4837421;28;24457;-65
2024/01/06 07:09:37;;;;;;;3.28;2.35;;;6.70;99.90;;;6.66;91.12;99648.16;4832054;28;25053;-65
2024/01/06 07:11:59;;;;;;;2.30;2.20;;;6.70;99.90;;;6.72;91.12;99649.47;4828902;28;24514;-66
2024/01/06 07:14:21;;;;;;;3.10;2.20;;;6.70;99.90;;;6.72;91.21;99657.25;4815534;28;24463;-64
2024/01/06 07:16:43;;;;;;;3.38;2.50;;;6.70;99.90;;;6.74;91.35;99658.81;4833887;28;24436;-65
2024/01/06 07:19:05;;;;;;;2.58;2.38;;;6.70;99.90;;;6.78;91.19;99665.41;4837327;28;24483;-64
2024/01/06 07:21:27;;;;;;;2.70;2.50;;;6.80;99.90;;;6.84;91.39;99667.56;4817169;28;24440;-65
2024/01/06 07:23:49;;;;;;;2.60;2.50;;;6.80;99.90;;;6.90;90.61;99667.13;4836920;28;24528;-65
2024/01/06 07:26:11;;;;;;;2.50;2.30;;;6.90;99.90;;;6.94;90.33;99665.16;4819702;28;24519;-65
2024/01/06 07:28:33;;;;;;;2.50;2.40;;;6.90;99.90;;;6.95;90.35;99674.56;4782869;28;24995;-64
2024/01/06 07:30:55;;;;;;;2.70;2.50;;;6.90;99.90;;;6.97;89.95;99673.53;4818962;28;24440;-65
2024/01/06 07:33:17;;;;;;;2.92;2.30;;;6.90;99.90;;;6.98;90.86;99674.38;4834145;28;24440;-65
2024/01/06 07:35:43;;;;;;;2.40;2.30;;;6.90;99.90;;;6.93;90.83;99687.66;4836858;28;24515;-65
2024/01/06 07:38:05;;;;;;;4.18;2.50;;;6.90;99.90;;;6.93;90.50;99690.25;4832329;28;24535;-64
2024/01/06 07:40:27;;;;;;;2.63;2.40;;;6.90;99.90;;;6.92;90.01;99696.34;4819589;28;24544;-64
2024/01/06 07:42:49;;;;;;;2.30;2.20;;;6.90;99.90;;;6.88;90.38;99702.72;4830906;28;24532;-65
2024/01/06 07:45:11;;;;;;;3.00;2.50;;;6.90;99.90;;;6.88;90.64;99709.66;4825197;28;24543;-64
2024/01/06 07:47:33;;;;;;;3.25;2.60;;;6.90;99.90;;;6.83;90.24;99714.34;4836378;28;24432;-65
2024/01/06 07:49:57;;;;;;;3.38;2.42;;;6.80;99.90;;;6.78;91.00;99716.44;4828658;28;24476;-65
2024/01/06 07:52:19;;;;;;;3.38;2.50;;;6.80;99.90;;;6.79;91.13;99718.91;4825493;28;24487;-64
2024/01/06 07:54:41;;;;;;;2.60;2.40;;;6.80;99.90;;;6.77;91.83;99722.56;4818448;28;24540;-65
2024/01/06 07:57:03;;;;;;;2.50;2.30;;;6.80;99.90;;;6.80;90.93;99728.34;4832725;28;24974;-65
2024/01/06 07:59:25;;;;;;;3.38;2.70;;;6.80;99.90;;;6.81;91.94;99726.59;4829257;28;24495;-64
2024/01/06 08:01:47;;;;;;;5.30;2.70;;;6.80;99.90;;;6.79;91.09;99731.88;4816895;28;24912;-65
2024/01/06 08:04:09;;;;;;;2.70;2.50;;;6.80;99.90;;;6.83;91.52;99724.72;4836555;28;24421;-65
2024/01/06 08:06:31;;;;;;;2.50;2.30;;;6.80;99.90;;;6.84;91.46;99732.38;4817532;28;25005;-65
2024/01/06 08:08:54;;;;;;;2.90;2.63;;;6.80;99.90;;;6.82;91.15;99731.66;4795112;28;24440;-66
2024/01/06 08:11:16;;;;;;;3.97;2.50;;;6.80;99.90;;;6.84;91.20;99739.31;4828151;28;24515;-65
2024/01/06 08:13:38;;;;;;;5.40;2.95;;;6.80;99.90;;;6.78;92.02;99739.75;4809339;28;24528;-65
2024/01/06 08:16:00;;;;;;;3.50;2.30;;;6.80;99.90;;;6.79;92.05;99742.25;4835552;28;24500;-64
2024/01/06 08:18:22;;;;;;;2.80;2.60;;;6.80;99.90;;;6.79;92.79;99746.63;4811599;28;24456;-64
2024/01/06 08:20:44;;;;;;;5.03;2.77;;;6.80;99.90;;;6.79;93.20;99741.44;4816469;28;24488;-64
2024/01/06 08:23:06;;;;;;;5.00;2.80;;;6.80;99.90;;;6.78;93.83;99742.34;4794068;28;24613;-65
2024/01/06 08:25:28;;;;;;;2.80;2.60;;;6.80;99.90;;;6.80;93.01;99745.66;4831428;28;24523;-64
2024/01/06 08:27:50;;;;;;;3.45;3.00;;;6.80;99.90;;;6.81;93.78;99744.75;4819999;28;24535;-64
2024/01/06 08:30:12;;;;;;;3.65;2.90;;;6.80;99.90;;;6.84;94.38;99741.91;4832649;28;25027;-63
2024/01/06 08:32:34;;;;;;;3.67;3.10;;;6.80;99.90;;;6.86;94.66;99743.47;4830166;28;24989;-64
2024/01/06 08:34:56;;;;;;;3.30;3.00;;;6.80;99.90;;;6.91;94.53;99745.75;4809138;28;24450;-65
2024/01/06 08:37:18;;;;;;;3.97;3.10;;;6.90;99.90;;;6.92;94.67;99752.59;4805085;28;24435;-65
2024/01/06 08:39:41;;;;;;;3.40;3.10;;;6.90;99.90;;;6.90;94.32;99754.44;4834128;28;24467;-64
2024/01/06 08:42:03;;;;;;;4.38;3.38;;;6.90;99.90;;;6.82;94.86;99756.75;4834791;28;24539;-65
2024/01/06 08:44:25;;;;;;;3.42;3.13;;;6.80;99.90;;;6.82;95.14;99762.78;4803377;28;24566;-65
2024/01/06 08:46:47;;;;;;;4.30;3.20;;;6.80;99.90;;;6.76;96.17;99763.22;4832431;28;24464;-65
2024/01/06 08:49:09;;;;;;;4.20;3.40;;;6.80;99.90;;;6.86;96.27;99765.97;4811039;28;24607;-65
2024/01/06 08:51:31;;;;;;;5.88;3.70;;;6.80;99.90;;;6.89;96.51;99765.78;4799654;28;24455;-65
2024/01/06 08:53:53;;;;;;;5.95;4.30;;;6.80;99.90;;;6.87;96.54;99768.47;4818664;28;24565;-65
2024/01/06 08:56:17;;;;;;;4.32;3.92;;;6.80;99.90;;;6.96;95.70;99767.81;4834318;28;24491;-65
2024/01/06 08:58:39;;;;;;;4.10;3.00;;;6.90;99.90;;;7.07;96.80;99776.63;4815854;28;24452;-62
2024/01/06 09:01:01;;;;;;;3.50;3.20;;;7.00;99.90;;;7.19;96.31;99773.16;4800375;28;24447;-65
2024/01/06 09:03:24;;;;;;;3.60;3.30;;;7.00;99.90;;;7.34;96.35;99782.44;4832167;28;24474;-63
2024/01/06 09:05:46;;;;;;;3.45;3.15;;;7.10;99.90;;;7.46;95.78;99771.16;4835192;28;24859;-65
2024/01/06 09:08:08;;;;;;;3.90;3.20;;;7.30;99.90;;;7.58;95.35;99784.06;4816104;28;24468;-66
2024/01/06 09:10:30;;;;;;;4.20;3.40;;;7.40;99.90;;;7.67;94.73;99780.81;4835803;28;24460;-65
2024/01/06 09:12:52;;;;;;;5.05;3.08;;;7.50;99.90;;;7.73;93.70;99780.34;4816841;28;25060;-65
2024/01/06 09:15:14;;;;;;;3.78;3.10;;;7.60;99.90;;;7.76;92.65;99781.91;4832243;28;24814;-65
2024/01/06 09:17:36;;;;;;;4.65;3.50;;;7.60;99.90;;;7.72;93.31;99789.09;4834844;28;24564;-66
2024/01/06 09:19:58;;;;;;;3.95;3.20;;;7.60;99.90;;;7.67;92.84;99795.53;4824100;28;24811;-66
2024/01/06 09:22:20;;;;;;;4.00;3.42;;;7.60;99.90;;;7.66;93.71;99799.94;4815009;28;24445;-66
2024/01/06 09:24:42;;;;;;;4.72;3.30;;;7.60;99.90;;;7.60;93.38;99795.16;4834850;28;24432;-66
2024/01/06 09:27:04;;;;;;;5.43;3.38;;;7.50;99.90;;;7.55;94.26;99799.03;4834374;28;25064;-66
2024/01/06 09:29:26;;;;;;;3.75;3.45;;;7.50;99.90;;;7.51;94.92;99795.03;4817376;28;24486;-65
2024/01/06 09:31:48;;;;;;;3.43;3.10;;;7.50;99.90;;;7.41;95.71;99799.22;4829439;28;24445;-66
2024/01/06 09:34:12;;;;;;;5.00;3.30;;;7.40;99.90;;;7.38;95.81;99808.06;4797964;28;24460;-63
2024/01/06 09:36:34;;;;;;;4.85;3.40;;;7.40;99.90;;;7.37;95.76;99802.97;4794400;28;24447;-66
2024/01/06 09:38:56;;;;;;;3.80;3.50;;;7.30;99.90;;;7.44;95.96;99807.59;4831984;28;24439;-66
2024/01/06 09:41:18;;;;;;;4.50;3.50;;;7.40;99.90;;;7.52;96.28;99814.81;4819359;28;24494;-66
2024/01/06 09:43:40;;;;;;;4.20;3.05;;;7.40;99.90;;;7.59;96.14;99814.28;4835762;28;25054;-64
2024/01/06 09:46:12;;;;;;;5.72;3.80;;;7.50;99.90;;;7.66;96.11;99815.50;4837304;28;24523;-66
2024/01/06 09:48:40;;;;;;;4.55;3.40;;;7.50;99.90;;;7.64;96.04;99813.97;4805266;28;24448;-64
2024/01/06 09:51:04;;;;;;;4.18;3.55;;;7.60;99.90;;;7.63;96.16;99817.47;4819891;28;24455;-65
2024/01/06 09:53:36;;;;;;;8.48;4.28;;;7.60;99.90;;;7.67;95.58;99821.50;4820232;28;25036;-66
2024/01/06 09:55:58;;;;;;;4.17;3.77;;;7.60;99.90;;;7.63;95.29;99820.91;4818263;28;24448;-66
2024/01/06 09:58:20;;;;;;;5.00;3.85;;;7.60;99.90;;;7.63;95.45;99826.09;4828184;28;24486;-65
2024/01/06 10:00:42;;;;;;;5.68;3.95;;;7.60;99.90;;;7.49;95.05;99825.44;4834596;28;24433;-65
2024/01/06 10:03:05;;;;;;;5.03;3.80;;;7.50;99.90;;;7.44;95.91;99822.34;4816927;28;24521;-65
2024/01/06 10:05:27;;;;;;;5.65;4.25;;;7.40;99.90;;;7.44;95.96;99823.19;4823517;28;24452;-66
2024/01/06 10:07:52;;;;;;;5.38;4.38;;;7.40;99.90;;;7.48;96.71;99822.00;4834089;28;20866;-65
2024/01/06 10:10:14;;;;;;;5.13;4.10;;;7.40;99.90;;;7.54;96.81;99829.34;4814682;28;24442;-65